Time;durP1;ratioP1;P1;durP2;ratioP2;P2;SDS_P1;SDS_P2;PMS_P1;PMS_P2;Temp;Humidity;BMP_temperature;BMP_pressure;BME280_temperature;BME280_humidity;BME280_pressure;Samples;Min_cycle;Max_cycle;Signal;HPM_P1;HPM_P2
2021/10/20 00:00:53;;;;;;;29.13;13.80;;;;;;;0.24;100.00;101070.27;1778294;81;20993;-72
2021/10/20 00:03:19;;;;;;;28.57;12.83;;;;;;;0.20;100.00;101069.56;1778509;80;21001;-71
2021/10/20 00:05:47;;;;;;;26.17;13.53;;;;;;;0.15;100.00;101072.93;1741184;82;21001;-71
2021/10/20 00:08:14;;;;;;;25.07;11.93;;;;;;;0.10;100.00;101072.30;1777926;81;21045;-72
2021/10/20 00:10:41;;;;;;;29.27;12.77;;;;;;;0.07;100.00;101070.67;1741320;82;21091;-70
2021/10/20 00:13:08;;;;;;;27.93;12.67;;;;;;;0.04;100.00;101072.62;1778323;81;21005;-72
2021/10/20 00:15:34;;;;;;;26.53;12.57;;;;;;;-0.02;100.00;101075.98;1741372;82;21027;-72
2021/10/20 00:18:01;;;;;;;24.70;12.47;;;;;;;-0.04;100.00;101070.34;1778609;81;21040;-72
2021/10/20 00:20:28;;;;;;;30.73;13.87;;;;;;;-0.04;100.00;101076.98;1778468;81;21020;-71
2021/10/20 00:22:55;;;;;;;28.07;14.23;;;;;;;-0.04;100.00;101074.33;1778639;81;20998;-72
2021/10/20 00:25:21;;;;;;;31.27;14.20;;;;;;;-0.04;100.00;101078.31;1778493;81;21459;-72
2021/10/20 00:27:48;;;;;;;31.47;14.57;;;;;;;-0.04;100.00;101081.83;1778629;81;20974;-71
2021/10/20 00:30:16;;;;;;;32.83;14.60;;;;;;;-0.02;100.00;101085.30;1778441;80;21076;-74
2021/10/20 00:32:44;;;;;;;30.30;15.03;;;;;;;-0.04;100.00;101088.47;1778115;81;21052;-71
2021/10/20 00:35:11;;;;;;;35.90;16.87;;;;;;;-0.05;100.00;101084.11;1777902;79;21021;-71
2021/10/20 00:37:38;;;;;;;36.63;17.93;;;;;;;-0.07;100.00;101082.00;1777726;81;21033;-72
2021/10/20 00:40:05;;;;;;;38.33;19.23;;;;;;;-0.09;100.00;101081.23;1777979;80;21004;-72
2021/10/20 00:42:33;;;;;;;33.20;15.93;;;;;;;-0.12;100.00;101081.37;1778056;81;21001;-72
2021/10/20 00:45:02;;;;;;;30.37;14.40;;;;;;;-0.14;100.00;101090.34;1741187;82;21048;-72
2021/10/20 00:47:30;;;;;;;31.30;13.57;;;;;;;-0.16;100.00;101092.22;1712571;84;21039;-72
2021/10/20 00:49:57;;;;;;;27.10;12.73;;;;;;;-0.16;100.00;101090.89;1766671;81;21446;-71
2021/10/20 00:52:25;;;;;;;26.20;13.37;;;;;;;-0.18;100.00;101082.99;1738838;82;21068;-71
2021/10/20 00:54:53;;;;;;;26.00;12.33;;;;;;;-0.19;100.00;101093.25;1738651;81;21111;-72
2021/10/20 00:57:21;;;;;;;27.37;12.90;;;;;;;-0.23;100.00;101091.22;1740966;82;21056;-71
2021/10/20 00:59:48;;;;;;;25.13;11.80;;;;;;;-0.28;100.00;101088.40;1725387;83;21483;-71
2021/10/20 01:02:14;;;;;;;25.30;11.57;;;;;;;-0.34;100.00;101084.70;1740920;82;21008;-71
2021/10/20 01:04:41;;;;;;;32.03;12.87;;;;;;;-0.37;100.00;101085.72;1725615;83;20982;-71
2021/10/20 01:07:08;;;;;;;26.13;12.90;;;;;;;-0.41;100.00;101086.34;1740940;82;21474;-72
2021/10/20 01:09:35;;;;;;;28.97;13.00;;;;;;;-0.42;100.00;101091.73;1741133;82;21004;-71
2021/10/20 01:12:05;;;;;;;29.03;14.17;;;;;;;-0.45;100.00;101094.05;1720496;82;21099;-72
2021/10/20 01:14:32;;;;;;;30.47;14.17;;;;;;;-0.45;100.00;101098.52;1740875;82;21502;-72
2021/10/20 01:16:58;;;;;;;29.60;13.60;;;;;;;-0.47;100.00;101098.58;1725196;83;21018;-71
2021/10/20 01:19:25;;;;;;;31.27;14.37;;;;;;;-0.47;100.00;101095.08;1740992;82;21470;-71
2021/10/20 01:21:52;;;;;;;30.70;14.83;;;;;;;-0.46;100.00;101098.11;1741015;82;21031;-72
2021/10/20 01:24:20;;;;;;;33.23;15.70;;;;;;;-0.47;100.00;101095.92;1725542;83;20990;-72
2021/10/20 01:26:51;;;;;;;30.97;15.20;;;;;;;-0.46;100.00;101102.98;1741034;82;21513;-72
2021/10/20 01:29:18;;;;;;;33.83;15.53;;;;;;;-0.47;100.00;101101.23;1741066;81;21040;-72
2021/10/20 01:31:48;;;;;;;33.80;15.53;;;;;;;-0.47;100.00;101102.56;1725309;83;21069;-72
2021/10/20 01:34:15;;;;;;;31.60;15.70;;;;;;;-0.47;100.00;101112.34;1668504;86;21037;-72
2021/10/20 01:36:44;;;;;;;35.77;16.17;;;;;;;-0.47;100.00;101115.00;1668528;85;21592;-71
2021/10/20 01:39:11;;;;;;;37.03;17.33;;;;;;;-0.47;100.00;101121.64;1668758;85;21109;-73
2021/10/20 01:41:38;;;;;;;42.57;21.13;;;;;;;-0.44;100.00;101124.16;1668566;85;21103;-72
2021/10/20 01:44:05;;;;;;;55.10;24.93;;;;;;;-0.44;100.00;101127.67;1669016;85;21080;-72
2021/10/20 01:46:32;;;;;;;49.03;22.57;;;;;;;-0.44;100.00;101133.46;1668671;85;21065;-70
2021/10/20 01:48:59;;;;;;;40.87;17.97;;;;;;;-0.47;100.00;101133.13;1668954;85;21025;-72
2021/10/20 01:51:25;;;;;;;34.37;16.63;;;;;;;-0.50;100.00;101133.27;1638906;85;21133;-70
2021/10/20 01:53:52;;;;;;;38.53;16.47;;;;;;;-0.55;100.00;101141.06;1664321;86;21077;-72
2021/10/20 01:56:20;;;;;;;32.73;16.87;;;;;;;-0.63;100.00;101144.09;1663323;86;21066;-72
2021/10/20 01:58:46;;;;;;;32.37;16.00;;;;;;;-0.71;100.00;101143.11;1663914;86;20998;-71
2021/10/20 02:01:13;;;;;;;31.97;15.90;;;;;;;-0.76;100.00;101139.83;1663857;86;21034;-72
2021/10/20 02:03:41;;;;;;;34.43;16.93;;;;;;;-0.80;100.00;101141.77;1638521;86;21089;-72
2021/10/20 02:06:12;;;;;;;35.30;16.47;;;;;;;-0.81;100.00;101137.85;1663738;86;21511;-71
2021/10/20 02:08:38;;;;;;;32.87;16.60;;;;;;;-0.82;100.00;101136.97;1663710;86;21062;-72
2021/10/20 02:11:07;;;;;;;36.47;16.53;;;;;;;-0.82;100.00;101137.45;1663939;86;21041;-71
2021/10/20 02:13:34;;;;;;;35.60;16.70;;;;;;;-0.83;100.00;101131.28;1663913;86;21105;-71
2021/10/20 02:16:03;;;;;;;39.10;18.87;;;;;;;-0.83;100.00;101140.58;1663960;86;21061;-71
2021/10/20 02:18:30;;;;;;;35.47;17.27;;;;;;;-0.82;100.00;101142.28;1663598;86;21014;-71
2021/10/20 02:20:57;;;;;;;36.87;17.70;;;;;;;-0.81;100.00;101144.49;1663788;86;21034;-71
2021/10/20 02:23:24;;;;;;;34.63;16.70;;;;;;;-0.82;100.00;101147.59;1663463;86;21540;-69
2021/10/20 02:25:51;;;;;;;39.40;17.90;;;;;;;-0.82;100.00;101147.59;1641593;86;21100;-72
2021/10/20 02:28:17;;;;;;;38.13;19.03;;;;;;;-0.80;100.00;101152.39;1663843;86;21467;-70
2021/10/20 02:30:44;;;;;;;44.27;19.60;;;;;;;-0.78;100.00;101155.84;1686738;83;21047;-72
2021/10/20 02:33:11;;;;;;;38.53;18.73;;;;;;;-0.75;100.00;101157.95;1788438;80;21030;-72
2021/10/20 02:35:39;;;;;;;41.40;20.27;;;;;;;-0.74;100.00;101156.55;1777811;79;21062;-71
2021/10/20 02:38:06;;;;;;;39.67;19.30;;;;;;;-0.72;100.00;101162.65;1777919;81;21021;-72
2021/10/20 02:40:33;;;;;;;44.23;21.50;;;;;;;-0.70;100.00;101162.59;1778089;81;21014;-72
2021/10/20 02:43:00;;;;;;;38.40;20.10;;;;;;;-0.69;100.00;101166.94;1777946;81;21477;-71
2021/10/20 02:45:26;;;;;;;37.33;20.03;;;;;;;-0.69;100.00;101166.94;1777841;81;20998;-71
2021/10/20 02:47:53;;;;;;;37.00;19.57;;;;;;;-0.69;100.00;101166.94;1777863;81;21017;-72
2021/10/20 02:50:21;;;;;;;41.80;21.20;;;;;;;-0.70;100.00;101171.88;1759819;81;21505;-72
2021/10/20 02:52:49;;;;;;;40.83;21.20;;;;;;;-0.70;100.00;101165.24;1738489;82;21467;-71
2021/10/20 02:55:15;;;;;;;38.20;20.23;;;;;;;-0.71;100.00;101165.69;1744847;81;21052;-71
2021/10/20 02:57:43;;;;;;;39.33;20.90;;;;;;;-0.72;100.00;101168.44;1775088;81;21017;-71
2021/10/20 03:00:10;;;;;;;40.17;20.13;;;;;;;-0.72;100.00;101165.30;1775692;81;20982;-70
2021/10/20 03:02:37;;;;;;;37.07;19.70;;;;;;;-0.73;100.00;101160.91;1738758;82;21036;-73
2021/10/20 03:05:05;;;;;;;33.57;17.73;;;;;;;-0.71;100.00;101164.83;1775721;81;21075;-70
2021/10/20 03:07:32;;;;;;;31.00;15.70;;;;;;;-0.70;100.00;101165.24;1775624;81;21025;-72
2021/10/20 03:10:00;;;;;;;31.33;14.90;;;;;;;-0.70;100.00;101163.44;1775573;81;21009;-72
2021/10/20 03:12:27;;;;;;;29.30;14.07;;;;;;;-0.67;100.00;101158.47;1738945;81;21510;-71
2021/10/20 03:14:53;;;;;;;26.83;13.07;;;;;;;-0.64;100.00;101158.30;1775855;81;21020;-70
2021/10/20 03:17:21;;;;;;;25.70;13.07;;;;;;;-0.61;100.00;101157.69;1775842;81;21021;-71
2021/10/20 03:19:48;;;;;;;26.50;12.30;;;;;;;-0.56;100.00;101162.80;1775627;81;21519;-71
2021/10/20 03:22:14;;;;;;;27.73;13.33;;;;;;;-0.53;100.00;101165.77;1776041;81;20989;-70
2021/10/20 03:24:41;;;;;;;29.83;14.30;;;;;;;-0.51;100.00;101167.88;1738777;82;21087;-71
2021/10/20 03:27:08;;;;;;;26.07;12.93;;;;;;;-0.49;100.00;101167.36;1775592;81;21044;-71
2021/10/20 03:29:35;;;;;;;32.33;14.77;;;;;;;-0.49;100.00;101173.53;1738850;82;21094;-71
2021/10/20 03:32:03;;;;;;;31.47;14.77;;;;;;;-0.49;100.00;101174.86;1775491;81;21025;-72
2021/10/20 03:34:29;;;;;;;36.63;16.47;;;;;;;-0.48;100.00;101171.72;1739494;82;21072;-71
2021/10/20 03:36:56;;;;;;;39.40;18.13;;;;;;;-0.48;100.00;101177.04;1740959;82;20969;-72
2021/10/20 03:39:22;;;;;;;45.73;21.20;;;;;;;-0.50;100.00;101173.13;1725612;83;20978;-71
2021/10/20 03:41:51;;;;;;;40.03;18.97;;;;;;;-0.51;100.00;101179.83;1740957;82;21779;-71
2021/10/20 03:44:17;;;;;;;42.73;20.17;;;;;;;-0.55;100.00;101183.58;1725637;83;21022;-71
2021/10/20 03:46:43;;;;;;;37.00;18.07;;;;;;;-0.58;100.00;101186.77;1741239;82;21056;-71
2021/10/20 03:49:10;;;;;;;38.40;18.07;;;;;;;-0.62;100.00;101194.50;1725468;83;21169;-71
2021/10/20 03:51:37;;;;;;;35.13;16.33;;;;;;;-0.67;100.00;101195.66;1715127;82;21488;-68
2021/10/20 03:54:03;;;;;;;34.27;15.67;;;;;;;-0.71;100.00;101192.25;1715169;84;21009;-71
2021/10/20 03:56:32;;;;;;;40.77;20.03;;;;;;;-0.73;100.00;101186.63;1741451;82;21112;-71
2021/10/20 03:58:58;;;;;;;39.03;18.43;;;;;;;-0.74;100.00;101184.44;1754206;82;21053;-71
2021/10/20 04:01:25;;;;;;;42.40;18.77;;;;;;;-0.77;100.00;101194.72;1753850;82;21480;-73
2021/10/20 04:03:52;;;;;;;39.77;19.60;;;;;;;-0.79;100.00;101197.92;1754145;82;21005;-71
2021/10/20 04:06:19;;;;;;;36.23;18.70;;;;;;;-0.80;100.00;101206.84;1753888;82;21034;-70
2021/10/20 04:08:46;;;;;;;38.17;18.13;;;;;;;-0.81;100.00;101215.72;1753876;82;21041;-73
2021/10/20 04:11:15;;;;;;;41.33;19.83;;;;;;;-0.82;100.00;101213.13;1753522;82;20990;-71
2021/10/20 04:13:41;;;;;;;38.03;20.87;;;;;;;-0.86;100.00;101218.20;1753707;82;21009;-72
2021/10/20 04:16:10;;;;;;;38.77;19.60;;;;;;;-0.88;100.00;101224.05;1753643;82;21081;-73
2021/10/20 04:18:37;;;;;;;39.40;20.07;;;;;;;-0.92;100.00;101221.99;1753704;82;21009;-72
2021/10/20 04:21:04;;;;;;;44.40;19.73;;;;;;;-0.98;100.00;101225.76;1753742;82;20998;-72
2021/10/20 04:23:31;;;;;;;44.20;21.23;;;;;;;-1.02;100.00;101221.53;1753763;82;21010;-72
2021/10/20 04:25:58;;;;;;;39.80;20.50;;;;;;;-1.04;100.00;101226.52;1753352;82;21034;-73
2021/10/20 04:28:25;;;;;;;42.80;20.80;;;;;;;-1.05;100.00;101229.62;1753621;82;21022;-72
2021/10/20 04:30:52;;;;;;;43.10;21.13;;;;;;;-1.06;100.00;101232.34;1753712;82;21100;-71
2021/10/20 04:33:19;;;;;;;44.17;21.30;;;;;;;-1.05;100.00;101230.09;1753672;82;21022;-72
2021/10/20 04:35:45;;;;;;;51.33;25.97;;;;;;;-1.05;100.00;101230.94;1750213;80;21071;-71
2021/10/20 04:38:13;;;;;;;42.27;22.33;;;;;;;-1.02;100.00;101232.63;1749141;82;21020;-71
2021/10/20 04:40:39;;;;;;;37.93;18.93;;;;;;;-1.00;100.00;101232.94;1749159;82;21023;-74
2021/10/20 04:43:08;;;;;;;34.90;16.37;;;;;;;-0.93;100.00;101240.65;1748939;82;21035;-71
2021/10/20 04:45:36;;;;;;;32.63;16.73;;;;;;;-0.91;100.00;101235.65;1748843;82;21486;-71
2021/10/20 04:48:03;;;;;;;33.70;16.10;;;;;;;-0.85;100.00;101242.47;1786265;80;21061;-72
2021/10/20 04:50:31;;;;;;;32.17;16.27;;;;;;;-0.80;100.00;101251.98;1725852;82;21062;-72
2021/10/20 04:52:58;;;;;;;31.00;15.73;;;;;;;-0.74;100.00;101252.17;1743458;82;21063;-71
2021/10/20 04:55:25;;;;;;;31.43;15.83;;;;;;;-0.69;100.00;101250.62;1733208;80;20989;-72
2021/10/20 04:57:53;;;;;;;32.03;17.60;;;;;;;-0.63;100.00;101253.02;1786343;80;21068;-72
2021/10/20 05:00:22;;;;;;;38.40;17.53;;;;;;;-0.59;100.00;101267.87;1786181;80;20989;-71
2021/10/20 05:02:50;;;;;;;48.83;26.40;;;;;;;-0.53;100.00;101266.73;1749082;82;21016;-71
2021/10/20 05:05:18;;;;;;;49.20;29.93;;;;;;;-0.47;100.00;101272.62;1786367;80;21060;-72
2021/10/20 05:07:52;;;;;;;48.00;27.47;;;;;;;-0.39;100.00;101278.91;1748831;82;21100;-72
2021/10/20 05:10:22;;;;;;;47.80;24.67;;;;;;;-0.29;100.00;101290.00;1705878;84;21555;-73
2021/10/20 05:12:49;;;;;;;38.53;22.83;;;;;;;-0.20;100.00;101291.75;1705624;84;21111;-72
2021/10/20 05:15:17;;;;;;;35.33;20.63;;;;;;;-0.07;100.00;101296.50;1705250;84;21026;-71
2021/10/20 05:17:44;;;;;;;33.63;18.77;;;;;;;0.06;100.00;101292.34;1705435;84;21119;-72
2021/10/20 05:20:12;;;;;;;41.57;19.70;;;;;;;0.18;100.00;101288.23;1705731;84;21103;-72
2021/10/20 05:22:39;;;;;;;60.53;26.00;;;;;;;0.32;100.00;101299.07;1705504;84;21085;-71
2021/10/20 05:25:07;;;;;;;83.37;32.37;;;;;;;0.49;100.00;101296.90;1705704;84;20991;-72
2021/10/20 05:27:35;;;;;;;90.90;35.60;;;;;;;0.67;100.00;101301.77;1705494;84;21006;-74
2021/10/20 05:30:02;;;;;;;100.97;38.13;;;;;;;0.85;100.00;101303.12;1705635;84;21033;-72
2021/10/20 05:32:31;;;;;;;90.53;35.90;;;;;;;1.04;100.00;101309.72;1705482;84;21046;-71
2021/10/20 05:34:58;;;;;;;104.47;43.97;;;;;;;1.22;100.00;101309.23;1706798;84;21485;-72
2021/10/20 05:37:25;;;;;;;92.77;40.73;;;;;;;1.38;100.00;101310.17;1677661;85;21021;-71
2021/10/20 05:39:53;;;;;;;110.03;43.80;;;;;;;1.54;100.00;101312.00;1709367;83;21106;-72
2021/10/20 05:42:19;;;;;;;99.33;42.07;;;;;;;1.71;100.00;101313.30;1677873;85;21074;-72
2021/10/20 05:44:46;;;;;;;79.00;36.40;;;;;;;1.88;100.00;101312.39;1709599;84;21022;-71
2021/10/20 05:47:14;;;;;;;66.63;32.40;;;;;;;2.03;100.00;101312.02;1677652;85;21117;-72
2021/10/20 05:49:41;;;;;;;60.63;29.67;;;;;;;2.21;100.00;101317.67;1707917;84;21095;-73
2021/10/20 05:52:08;;;;;;;52.50;27.97;;;;;;;2.37;100.00;101320.31;1702047;84;21602;-72
2021/10/20 05:54:36;;;;;;;54.40;28.90;;;;;;;2.54;100.00;101330.53;1701832;84;21495;-71
2021/10/20 05:57:04;;;;;;;49.57;26.77;;;;;;;2.70;100.00;101323.83;1702113;84;21030;-72
2021/10/20 05:59:31;;;;;;;46.37;24.93;;;;;;;2.85;100.00;101310.44;1689250;82;21003;-71
2021/10/20 06:01:57;;;;;;;50.60;27.03;;;;;;;3.03;100.00;101316.50;1743421;82;20987;-72
2021/10/20 06:04:24;;;;;;;54.07;29.03;;;;;;;3.19;100.00;101308.91;1745185;81;20966;-72
2021/10/20 06:06:53;;;;;;;48.63;26.50;;;;;;;3.36;100.00;101323.91;1747877;82;21029;-72
2021/10/20 06:09:20;;;;;;;50.47;27.07;;;;;;;3.56;100.00;101326.24;1747486;82;21036;-72
2021/10/20 06:11:47;;;;;;;55.73;30.30;;;;;;;3.75;100.00;101330.44;1747568;82;21036;-73
2021/10/20 06:14:15;;;;;;;55.97;29.47;;;;;;;3.91;100.00;101330.34;1747900;82;21017;-72
2021/10/20 06:16:42;;;;;;;53.60;29.07;;;;;;;4.08;100.00;101326.13;1747713;82;21511;-72
2021/10/20 06:19:09;;;;;;;55.47;29.63;;;;;;;4.27;100.00;101310.23;1748241;82;20997;-74
2021/10/20 06:21:36;;;;;;;51.13;27.37;;;;;;;4.47;100.00;101315.14;1748923;81;21001;-74
2021/10/20 06:24:06;;;;;;;51.33;28.83;;;;;;;4.65;100.00;101310.88;1748967;82;21029;-74
2021/10/20 06:26:33;;;;;;;56.20;28.67;;;;;;;4.84;100.00;101297.96;1725769;82;21010;-74
2021/10/20 06:29:01;;;;;;;58.03;31.27;;;;;;;5.03;100.00;101290.87;1748424;82;21013;-72
2021/10/20 06:31:30;;;;;;;51.77;27.67;;;;;;;5.23;100.00;101285.48;1747983;82;21044;-74
2021/10/20 06:33:57;;;;;;;64.20;33.23;;;;;;;5.44;100.00;101297.03;1748414;82;21002;-75
2021/10/20 06:36:32;;;;;;;63.43;33.33;;;;;;;5.63;100.00;101296.12;1748571;81;21037;-75
2021/10/20 06:39:00;;;;;;;49.97;26.80;;;;;;;5.87;100.00;101301.55;1748478;82;21006;-74
2021/10/20 06:41:27;;;;;;;47.73;25.47;;;;;;;6.16;100.00;101301.33;1748422;82;21001;-74
2021/10/20 06:43:56;;;;;;;48.47;26.10;;;;;;;6.46;100.00;101304.94;1748946;82;21467;-75
2021/10/20 06:46:23;;;;;;;55.20;27.10;;;;;;;6.74;100.00;101305.55;1748534;81;21022;-73
2021/10/20 06:48:51;;;;;;;50.33;26.67;;;;;;;7.02;100.00;101308.84;1748645;82;21002;-74
2021/10/20 06:51:17;;;;;;;54.10;26.40;;;;;;;7.23;100.00;101308.53;1747473;82;20978;-73
2021/10/20 06:53:44;;;;;;;44.23;23.73;;;;;;;7.48;100.00;101306.62;1747679;82;21092;-76
2021/10/20 06:56:12;;;;;;;44.53;23.37;;;;;;;7.77;100.00;101304.34;1769725;80;21523;-75
2021/10/20 06:58:41;;;;;;;75.77;25.77;;;;;;;8.05;100.00;101300.77;1779356;80;21035;-74
2021/10/20 07:01:11;;;;;;;45.93;23.67;;;;;;;8.31;100.00;101297.30;1784024;80;21031;-71
2021/10/20 07:03:38;;;;;;;39.23;21.87;;;;;;;8.58;100.00;101292.00;1783417;80;21023;-73
2021/10/20 07:06:05;;;;;;;41.37;21.17;;;;;;;8.71;100.00;101288.66;1769575;80;21057;-72
2021/10/20 07:08:32;;;;;;;40.53;22.17;;;;;;;8.81;100.00;101288.72;1769603;81;20945;-72
2021/10/20 07:10:59;;;;;;;34.33;17.93;;;;;;;9.00;100.00;101284.48;1740581;82;21024;-71
2021/10/20 07:13:26;;;;;;;31.73;17.10;;;;;;;9.19;100.00;101283.28;1717921;83;21409;-72
2021/10/20 07:15:53;;;;;;;46.73;23.03;;;;;;;9.33;100.00;101275.34;1708055;84;21022;-72
2021/10/20 07:18:21;;;;;;;37.77;19.43;;;;;;;9.51;100.00;101268.83;1705445;84;21533;-71
2021/10/20 07:20:48;;;;;;;41.73;21.90;;;;;;;9.64;100.00;101274.00;1692589;83;21544;-72
2021/10/20 07:23:14;;;;;;;31.27;16.00;;;;;;;9.81;100.00;101277.42;1680456;84;21022;-72
2021/10/20 07:25:42;;;;;;;29.67;13.43;;;;;;;9.80;100.00;101273.51;1692236;83;21071;-72
2021/10/20 07:28:09;;;;;;;27.80;13.27;;;;;;;9.80;100.00;101278.91;1687311;83;20978;-72
2021/10/20 07:30:37;;;;;;;24.80;12.30;;;;;;;9.87;100.00;101282.78;1689545;83;21019;-72
2021/10/20 07:33:05;;;;;;;24.53;11.33;;;;;;;10.08;100.00;101285.41;1688170;85;21031;-72
2021/10/20 07:35:31;;;;;;;26.40;12.37;;;;;;;10.20;100.00;101281.61;1688160;84;21067;-71
2021/10/20 07:37:58;;;;;;;25.43;12.33;;;;;;;10.23;100.00;101289.92;1747073;81;21501;-72
2021/10/20 07:40:25;;;;;;;30.02;14.68;;;;;;;10.44;100.00;101283.95;1746922;82;21025;-71
2021/10/20 07:42:52;;;;;;;27.60;13.62;;;;;;;10.74;100.00;101286.70;1746968;81;21005;-73
2021/10/20 07:45:19;;;;;;;31.93;15.85;;;;;;;11.00;100.00;101278.36;1748450;82;21041;-72
2021/10/20 07:47:48;;;;;;;34.13;16.17;;;;;;;11.22;100.00;101276.34;1745252;82;21010;-73
2021/10/20 07:50:17;;;;;;;30.77;15.38;;;;;;;11.32;100.00;101273.12;1743497;82;20994;-74
2021/10/20 07:52:48;;;;;;;37.58;15.90;;;;;;;11.37;100.00;101268.63;1743715;82;20998;-72
2021/10/20 07:55:14;;;;;;;31.85;14.43;;;;;;;11.56;100.00;101271.77;1744083;81;21631;-72
2021/10/20 07:57:41;;;;;;;28.83;14.33;;;;;;;11.70;100.00;101268.57;1714920;82;21068;-74
2021/10/20 08:00:10;;;;;;;33.13;16.32;;;;;;;11.82;100.00;101262.98;1710053;82;20981;-71
2021/10/20 08:02:37;;;;;;;26.40;13.30;;;;;;;11.88;100.00;101266.44;1703356;82;20971;-72
2021/10/20 08:05:07;;;;;;;26.82;14.00;;;;;;;11.77;100.00;101256.64;1695109;82;21010;-70
2021/10/20 08:07:34;;;;;;;30.45;12.60;;;;;;;11.56;100.00;101269.05;1713301;82;21035;-73
2021/10/20 08:10:03;;;;;;;29.30;12.47;;;;;;;11.51;100.00;101259.16;1699284;82;21057;-72
2021/10/20 08:12:32;;;;;;;24.30;12.33;;;;;;;11.54;100.00;101257.04;1700144;82;21153;-73
2021/10/20 08:15:00;;;;;;;27.05;12.65;;;;;;;11.42;100.00;101259.56;1746048;82;21014;-74
2021/10/20 08:17:27;;;;;;;25.20;11.97;;;;;;;11.33;100.00;101251.83;1745435;82;21002;-71
2021/10/20 08:19:54;;;;;;;25.65;11.15;;;;;;;11.41;100.00;101245.66;1743965;82;21428;-71
2021/10/20 08:22:21;;;;;;;32.58;15.45;;;;;;;11.44;100.00;101249.44;1739779;82;21060;-72
2021/10/20 08:24:48;;;;;;;24.23;11.70;;;;;;;11.53;99.59;101247.70;1746693;81;21001;-70
2021/10/20 08:27:15;;;;;;;26.00;11.35;;;;;;;11.55;99.47;101243.83;1747679;81;20985;-69
2021/10/20 08:29:41;;;;;;;21.07;9.63;;;;;;;11.74;99.27;101234.78;1740717;81;20977;-70
2021/10/20 08:32:09;;;;;;;20.65;10.23;;;;;;;11.91;94.41;101237.72;1745528;80;21575;-69
2021/10/20 08:34:35;;;;;;;27.02;11.90;;;;;;;11.98;95.71;101236.63;1743764;82;21108;-70
2021/10/20 08:37:02;;;;;;;28.50;13.08;;;;;;;12.23;98.83;101226.90;1736185;82;21480;-71
2021/10/20 08:39:31;;;;;;;22.65;9.68;;;;;;;12.49;93.83;101228.36;1748515;82;21017;-71
2021/10/20 08:41:58;;;;;;;19.30;8.60;;;;;;;12.49;83.26;101227.01;1712638;82;21035;-71
2021/10/20 08:44:24;;;;;;;20.92;9.03;;;;;;;12.34;82.49;101226.19;1713158;83;20978;-71
2021/10/20 08:46:53;;;;;;;19.40;8.78;;;;;;;12.30;79.20;101227.48;1698450;84;21085;-70
2021/10/20 08:49:20;;;;;;;22.50;8.58;;;;;;;12.21;78.83;101228.92;1719393;82;21525;-69
2021/10/20 08:51:47;;;;;;;20.12;8.58;;;;;;;12.12;77.20;101223.39;1706644;82;21046;-69
2021/10/20 08:54:14;;;;;;;15.55;7.83;;;;;;;12.22;80.38;101220.63;1729067;82;21062;-71
2021/10/20 08:56:45;;;;;;;18.42;7.72;;;;;;;12.33;80.49;101220.41;1748593;81;20970;-69
2021/10/20 08:59:13;;;;;;;17.37;7.90;;;;;;;12.57;84.52;101216.25;1748956;81;21041;-76
2021/10/20 09:01:41;;;;;;;18.77;7.45;;;;;;;12.84;78.03;101211.20;1752095;80;21056;-75
2021/10/20 09:04:09;;;;;;;15.45;6.87;;;;;;;12.69;70.22;101212.25;1754552;82;21028;-75
2021/10/20 09:06:37;;;;;;;16.57;7.08;;;;;;;12.45;72.01;101207.98;1754020;82;21495;-74
2021/10/20 09:09:07;;;;;;;13.62;6.42;;;;;;;12.51;76.17;101201.41;1750725;81;21048;-74
2021/10/20 09:11:34;;;;;;;12.13;6.45;;;;;;;12.59;72.37;101205.20;1751980;82;21001;-75
2021/10/20 09:14:10;;;;;;;16.37;6.35;;;;;;;12.54;69.75;101198.91;1766820;80;21014;-73
2021/10/20 09:16:41;;;;;;;8.95;5.22;;;;;;;12.56;71.62;101189.27;1739562;82;21054;-77
2021/10/20 09:19:18;;;;;;;74.32;23.57;;;;;;;12.76;73.19;101185.86;1690719;85;21069;-75
2021/10/20 09:22:03;;;;;;;17.70;7.95;;;;;;;13.00;74.38;101190.64;1637967;88;21610;-76
2021/10/20 09:24:45;;;;;;;20.52;6.58;;;;;;;13.26;72.33;101192.84;1636960;87;21133;-74
2021/10/20 09:27:26;;;;;;;16.73;6.83;;;;;;;13.50;66.43;101192.66;1636746;87;21086;-75
2021/10/20 09:30:13;;;;;;;11.75;5.83;;;;;;;13.49;62.84;101196.37;1632669;87;21062;-75
2021/10/20 09:32:41;;;;;;;15.75;5.60;;;;;;;13.26;58.62;101197.41;1635173;87;21092;-75
2021/10/20 09:35:11;;;;;;;14.40;6.70;;;;;;;13.04;61.64;101194.21;1639523;87;21082;-75
2021/10/20 09:37:40;;;;;;;10.13;4.65;;;;;;;12.95;59.93;101195.17;1639002;87;21098;-76
2021/10/20 09:40:15;;;;;;;10.35;4.83;;;;;;;12.87;60.81;101185.12;1639299;87;21069;-75
2021/10/20 09:42:47;;;;;;;10.03;4.90;;;;;;;12.96;62.64;101191.94;1637567;87;21555;-75
2021/10/20 09:45:15;;;;;;;9.43;4.97;;;;;;;13.08;60.56;101180.69;1631523;88;21607;-77
2021/10/20 09:47:43;;;;;;;8.88;4.50;;;;;;;13.13;60.96;101189.69;1630969;88;21058;-71
2021/10/20 09:50:10;;;;;;;7.30;4.05;;;;;;;13.25;60.05;101187.56;1625871;88;21061;-76
2021/10/20 09:52:51;;;;;;;8.43;4.25;;;;;;;13.35;58.78;101180.68;1628001;88;21073;-76
2021/10/20 09:55:30;;;;;;;10.85;4.75;;;;;;;13.48;56.90;101185.17;1637629;87;21022;-76
2021/10/20 09:58:06;;;;;;;7.92;4.50;;;;;;;13.43;55.73;101186.17;1636886;87;21073;-81
2021/10/20 10:00:33;;;;;;;14.78;5.87;;;;;;;13.43;56.48;101188.37;1635529;88;21050;-73
2021/10/20 10:03:00;;;;;;;12.43;6.00;;;;;;;13.50;54.45;101172.80;1636527;87;21125;-72
2021/10/20 10:05:29;;;;;;;76.92;8.98;;;;;;;13.44;53.82;101178.38;1622723;87;21594;-76
2021/10/20 10:07:57;;;;;;;15.68;4.42;;;;;;;13.47;55.43;101176.19;1637875;87;21102;-72
2021/10/20 10:10:24;;;;;;;8.55;3.92;;;;;;;13.40;53.85;101182.41;1634761;88;21587;-71
2021/10/20 10:12:57;;;;;;;5.47;3.62;;;;;;;13.29;54.28;101177.56;1631409;88;21614;-71
2021/10/20 10:15:25;;;;;;;8.28;3.50;;;;;;;13.29;56.02;101168.56;1636138;85;21155;-72
2021/10/20 10:17:55;;;;;;;9.15;3.40;;;;;;;13.46;54.67;101154.61;1698484;82;21088;-73
2021/10/20 10:20:27;;;;;;;22.45;7.42;;;;;;;13.60;53.84;101158.06;1752807;82;21029;-72
2021/10/20 10:23:06;;;;;;;10.05;3.60;;;;;;;13.77;52.87;101147.24;1748937;82;20994;-72
2021/10/20 10:25:38;;;;;;;14.58;4.70;;;;;;;14.00;49.62;101149.67;1725912;82;21036;-73
2021/10/20 10:28:23;;;;;;;12.03;4.28;;;;;;;14.16;48.02;101153.45;1749070;81;21002;-70
2021/10/20 10:31:00;;;;;;;11.28;4.50;;;;;;;13.95;47.23;101157.51;1703772;83;21499;-72
2021/10/20 10:33:28;;;;;;;9.63;3.70;;;;;;;13.77;49.06;101146.73;1709271;84;21037;-70
2021/10/20 10:36:14;;;;;;;5.90;3.20;;;;;;;13.80;49.16;101145.05;1724576;82;21034;-70
2021/10/20 10:38:52;;;;;;;9.13;3.83;;;;;;;13.83;48.50;101147.95;1727163;82;21190;-71
2021/10/20 10:41:41;;;;;;;6.58;3.75;;;;;;;13.84;47.54;101132.81;1658671;85;21097;-71
2021/10/20 10:44:21;;;;;;;16.85;5.60;;;;;;;13.77;47.52;101130.94;1671930;85;21503;-74
2021/10/20 10:47:08;;;;;;;7.62;4.28;;;;;;;13.97;50.23;101120.61;1665407;86;21053;-74
2021/10/20 10:49:41;;;;;;;7.45;3.87;;;;;;;14.09;45.98;101121.98;1658818;85;21089;-71
2021/10/20 10:52:34;;;;;;;5.75;3.10;;;;;;;13.75;45.93;101118.02;1641699;86;21074;-72
2021/10/20 10:55:20;;;;;;;5.35;3.08;;;;;;;13.69;46.72;101119.54;1661086;85;21014;-72
2021/10/20 10:58:15;;;;;;;11.28;3.22;;;;;;;13.84;47.25;101114.30;1591320;89;21196;-73
2021/10/20 11:00:48;;;;;;;10.38;3.40;;;;;;;14.02;48.04;101109.59;1576868;89;21098;-70
2021/10/20 11:03:21;;;;;;;6.10;3.10;;;;;;;14.20;44.48;101101.28;1586969;89;21066;-71
2021/10/20 11:05:51;;;;;;;5.50;3.12;;;;;;;14.08;41.11;101106.70;1602323;89;21114;-73
2021/10/20 11:08:19;;;;;;;7.60;3.65;;;;;;;14.08;41.11;101106.70;1544758;92;21103;-71
2021/10/20 11:10:47;;;;;;;7.65;3.40;;;;;;;13.89;41.42;101102.42;1547194;92;21074;-72
2021/10/20 11:13:14;;;;;;;12.50;3.22;;;;;;;13.78;43.16;101100.03;1525942;92;21045;-73